Terminal Aerodrome Forecast
Issued by NWS

Home | Current Version | Previous Version | Text Only | Print | Product List | Glossary Off
Versions: 1 2 3 4 5 6 7 8 9 10 11 12 13 14 15 16 17 18

456
FTUS43 KBIS 242332
TAFJMS
TAF
KJMS 242332Z 2500/2524 35014KT P6SM OVC006
      TEMPO 2500/2504 OVC004
     FM251600 01017G25KT P6SM OVC010
     FM252000 01019G28KT P6SM OVC020=

USA.gov is the U.S. government's official web portal to all federal, state and local government web resources and services.